Hickox, Pennsylvania
Current Conditions -  °F | °C
As of 11:56 PM on Thursday 25 Dec 2014 (Local Time) from KELZ Reporting Station
Overcast Overcast  
Wind Chill: 24°   Ceiling: 2300
Heat Index: 33°   Visibility: 10mi
Dew Point: 25°   Wind: 13mph
Humidity: 72%   Direction: 280°W
Pressure: 30.1"   Gusts: NA
Location:  41.915°N, 77.8855°W
Report Text: KELZ 260456Z AUTO 28011KT 10SM OVC023 01/M04 A3010 RMK AO2 SLP215 T00061039 400830006
Loading
Personal Weather Stations






























Interactive Weather Map New forecast layout! Learn more

10-Day Weather Forecast

Advertisements
Track Severe Weather on mobile